Superior, WI

8:59 AM CDT en Septiembre 02, 2014 (GMT -0500)
Central Park | Change Station
CLOSE
Current Station
Estación meteorológica personal
Location: Superior, WI
Altura: 623 ft
Estaciones meteorológicas cercanas

Alt 623 ft 46.72 °N, 92.07 °W | Updated 3 seconds ago

Clear
Despejado
59.9 ° F
Sensación térmica 59.9 ° F
N
4.5
Viento Variable Viento desde Sur
Gusts 5.4 mph

Hoy
Alta -- | Baja -- ° F
--% Posibilidad de precipitaciones
Ayer
Alta -- | Baja -- ° F
Precip. -- pul
6:29 AM 7:45 PM
Cuarto creciente, 51% visible
Presión 29.83 pul
Visibilidad 10.0 Millas
Nubes Despejado
Punto de rocío 60 ° F
Humedad 99%
Precipitaciones 0.00 pul
Espesor de la nieve No disponible.
UV 0.0 de una escala de 12
Polen 6.60 de una escala de 12
Calidad del aire No disponible.
Flu Activity No disponible.
METAR KSUW 021335Z AUTO 23006KT 10SM CLR 14/12 A2983 RMK AO2 T01390121

More Conditions Fewer Conditions

Presión 29.83 pul
Visibilidad 10.0 Millas
Nubes Despejado
Punto de rocío 60 ° F
Humedad 99%
Precipitaciones 0.00 pul
Espesor de la nieve No disponible.
UV 0.0 de una escala de 12
Polen 6.60 de una escala de 12
Calidad del aire No disponible.
Flu Activity No disponible.
METAR KSUW 021335Z AUTO 23006KT 10SM CLR 14/12 A2983 RMK AO2 T01390121

More Conditions Fewer Conditions

10-Day Weather Forecast

Almanac

Astronomía

Sep. 02, 2014 Salida Puesta
Hora real 6:29 AM CDT 7:45 PM CDT
Crepúsculo civil 5:58 AM CDT 8:16 PM CDT
Crepúsculo náutico 5:20 AM CDT 8:54 PM CDT
Crepúsculo astronómico 4:40 AM CDT 9:34 PM CDT
Luna 2:40 PM CDT Sin puesta de luna
Horas de luz 14h 18m
Horas de luz
13h 16m
Tomorrow will be 3m 13s shorter.
Cuarto creciente, 51% of the Moon is Illuminated
Hoy
Cuarto creciente
Sep 8
Luna llena
Sep 15
Cuarto menguante
Sep 24
Nueva
Oct 1
Cuarto creciente

Extremos de hoy

Máximos del estado Bajos del estado

Community

WunderPhotos

Upload Photos

1,749,656 ¡fotos cargadas!

Nearby

Grosos de nieve

Estación Profundido Altura
No tenemos constancia de nieve nueva.

Actividad de terremotos

Ciudad Distance Mag. Tiempo y dato
No hay informes recientes de la actividad sísmica.
Magnitud mínima muestra es 2,5.

Temperaturas de aguas costeras

Lugar Temperatura
Duluth, MN 64.9 ° F

Estaciones meteorológicas cercanas